Terminal Aerodrome Forecast
Issued by NWS Charleston, WV

Current Version | Previous Version | Graphics & Text | Print | Product List | Glossary On
Versions: 1 2 3 4 5 6 7 8 9 10 11 12 13 14 15 16 17 18 19 20 21 22 23 24 25
000
FTUS41 KRLX 231700 RRA
TAFBKW
TAF
KBKW 231751Z 2318/2418 13007KT P6SM BKN045
     FM240200 12008G13KT 5SM SHRA BR BKN035
     FM240500 12010G19KT 3SM SHRA BR OVC015
     FM241200 13012G22KT 4SM SHRA BR OVC004
     FM241400 13012G23KT 6SM -SHRA OVC015
     FM241600 13013G25KT P6SM OVC030=

USA.gov is the U.S. government's official web portal to all federal, state and local government web resources and services.